Terminal Aerodrome Forecast
Issued by NWS

Home | Current Version | Previous Version | Graphics & Text | Print | Product List | Glossary On
Versions: 1 2 3 4 5 6 7 8 9 10 11 12 13 14
000
FTUS43 KMPX 021720
TAFAXN
TAF
KAXN 021720Z 0218/0318 17018G26KT P6SM VCSH BKN060 OVC100
     FM022100 16020G28KT P6SM SCT050 BKN100
     FM030400 16015G22KT 6SM -TSRA OVC040CB
     FM030900 19007KT 4SM BR OVC015=

USA.gov is the U.S. government's official web portal to all federal, state and local government web resources and services.